createdAt,value
2023-05-10T00:13:55.842Z,6.8
2023-05-10T00:29:05.572Z,6.3
2023-05-10T00:44:15.917Z,5.3
2023-05-10T00:59:25.272Z,5.1
2023-05-10T01:14:34.962Z,5.9
2023-05-10T01:29:45.163Z,5.2
2023-05-10T01:44:54.957Z,6.1
2023-05-10T02:00:04.888Z,5.6
2023-05-10T02:15:14.874Z,5.8
2023-05-10T02:30:24.654Z,8.3
2023-05-10T02:45:34.063Z,8.3
2023-05-10T03:00:43.703Z,6.8
2023-05-10T03:15:53.439Z,6.2
2023-05-10T03:31:03.452Z,6.4
2023-05-10T03:46:13.692Z,8.5
2023-05-10T04:01:23.614Z,9.7
2023-05-10T04:16:33.288Z,12.3
2023-05-10T04:31:43.011Z,9.5
2023-05-10T04:46:52.900Z,9.6
2023-05-10T05:02:03.179Z,10.3
2023-05-10T05:17:13.183Z,14.9
2023-05-10T05:32:22.511Z,12.1
2023-05-10T05:47:32.498Z,9.6
2023-05-10T06:02:43.119Z,11.2
2023-05-10T06:17:53.561Z,12.3
2023-05-10T06:33:04.021Z,12.7
2023-05-10T06:48:14.425Z,11.6
2023-05-10T07:03:24.469Z,13.2
2023-05-10T07:18:34.933Z,10.9
2023-05-10T07:33:44.957Z,11.1
2023-05-10T07:48:55.013Z,7
2023-05-10T08:04:05.051Z,9
2023-05-10T08:19:15.459Z,4.5
2023-05-10T08:34:25.988Z,2.3
2023-05-10T08:49:36.845Z,2.8
2023-05-10T09:04:46.751Z,3.4
2023-05-10T09:19:56.731Z,5.5
2023-05-10T09:35:06.545Z,4.6
2023-05-10T09:50:16.074Z,5.1
2023-05-10T10:05:29.345Z,6
2023-05-10T10:20:40.567Z,7.5
2023-05-10T10:35:50.887Z,7.3
2023-05-10T10:51:00.641Z,8.7
2023-05-10T11:06:10.969Z,9.2
2023-05-10T11:21:20.501Z,6
2023-05-10T11:36:30.311Z,9.4
2023-05-10T11:51:40.757Z,8.1
2023-05-10T12:06:50.795Z,7.3
2023-05-10T12:22:03.426Z,11.9
2023-05-10T12:37:13.093Z,7.5
2023-05-10T12:52:22.537Z,12.5
2023-05-10T13:07:32.129Z,11.1
2023-05-10T13:22:41.672Z,11.1
2023-05-10T13:37:51.415Z,15.5
2023-05-10T13:53:00.735Z,14.7
2023-05-10T14:08:10.156Z,15.8
2023-05-10T14:23:19.974Z,34.4
2023-05-10T14:38:30.091Z,20.1
2023-05-10T14:53:40.664Z,16.7
2023-05-10T15:08:50.685Z,16
2023-05-10T15:24:00.124Z,8.4
2023-05-10T15:39:10.764Z,6.7
2023-05-10T15:54:20.546Z,3.6
2023-05-10T16:09:30.185Z,4.3
2023-05-10T16:24:40.140Z,3.3
2023-05-10T16:39:49.798Z,3.6
2023-05-10T16:54:59.756Z,7
2023-05-10T17:10:09.952Z,20.5
2023-05-10T17:25:20.690Z,24.3
2023-05-10T17:40:30.051Z,23.9
2023-05-10T17:55:39.990Z,26.2
2023-05-10T18:10:49.463Z,24.4
2023-05-10T18:25:58.940Z,21.1
2023-05-10T18:41:07.706Z,27.7
2023-05-10T18:56:17.203Z,22.2
2023-05-10T19:11:30.488Z,21.3
2023-05-10T19:26:40.405Z,21.4
2023-05-10T19:41:50.177Z,16.7
2023-05-10T19:57:00.640Z,20.7
2023-05-10T20:12:10.070Z,21.8
2023-05-10T20:27:19.513Z,19.4
2023-05-10T20:42:30.451Z,23.5
2023-05-10T20:57:39.590Z,22.5
2023-05-10T21:12:49.397Z,18.2
2023-05-10T21:27:59.329Z,22.4
2023-05-10T21:43:08.966Z,23.7
2023-05-10T21:58:18.694Z,24.8
2023-05-10T22:13:29.421Z,27.6
2023-05-10T22:28:39.561Z,27.8
2023-05-10T22:43:48.985Z,26.3
2023-05-10T22:58:59.244Z,27.4
2023-05-10T23:14:08.960Z,23.4
2023-05-10T23:29:18.718Z,18.3
2023-05-10T23:44:30.843Z,13.4
2023-05-10T23:59:40.172Z,14.5
